Pemaquid Point Lighthouse, ME

43° 50' 13"N, 69° 30' 22"W, Elevation 40 ft.
Eastern Time

Hourly observations for the last 72 hours

Date Time Temperature (°F) Humi-
dity

(%)
Wind
(mph)
Pressure Rain (in) Sun
(W/m2)
UV ET
(in)
Air Dew 6 Hour 1 Hr 3 Hr 6 Hr Day
Alt
(in)
Sea
Level

(mb)
Max Min
27 07:00 36.6 35.6 38.4 36.5 96 W 3 G 8 29.99 1015.6 0.00 7 0.0 0.000
27 06:00 36.6 35.6 96 N 1 G 3 29.99 1015.5 0.00 0 0.0 0.000
27 05:00 36.9 35.9 96 WNW 4 G 9 29.97 1015.1 0.00 0 0.0 0.000
27 04:00 37.5 36.5 96 WNW 0 G 6 29.97 1014.8 0.00 0 0.0 0.000
27 03:00 37.7 36.7 96 W 4 G 9 29.97 1014.9 0.00 0 0.0 0.000
27 02:00 37.8 36.8 96 W 5 G 11 29.96 1014.5 0.00 0 0.0 0.000
27 01:00 38.4 37.1 49.7 38.4 95 NW 6 G 11 29.95 1014.1 0.01 0.00 0 0.0 0.000
27 00:00 39.0 37.7 95 NW 8 G 12 29.94 1013.9 0.37 0 0.0 0.004
26 23:00 39.4 38.1 95 WNW 10 G 16 29.93 1013.6 0.37 0 0.0 0.004
26 22:00 40.8 39.5 95 WNW 4 G 6 29.93 1013.7 0.01 0.37 0 0.0 0.004
26 21:00 41.1 39.8 95 NW 3 G 3 29.93 1013.7 0.37 0 0.0 0.004
26 20:00 40.7 39.4 95 NW 10 G 19 29.94 1014.0 0.01 0.37 0 0.0 0.004
26 19:00 49.7 48.6 51.7 49.2 96 W 1 G 1 29.93 1013.7 0.02 0.07 0.36 0 0.0 0.004
26 18:00 49.3 47.9 95 WSW 1 G 1 29.95 1014.1 0.01 0.36 0 0.0 0.004
26 17:00 50.4 49.0 95 SSW 0 G 1 29.94 1014.1 0.01 0.35 0 0.0 0.004
26 16:00 51.5 50.4 96 Calm 29.94 1014.0 0.01 0.05 0.34 0 0.0 0.004
26 15:00 51.3 49.9 95 Calm 29.94 1014.1 0.03 0.33 35 0.0 0.004
26 14:00 51.1 49.7 95 Calm 29.97 1014.9 0.01 0.30 21 0.0 0.003
26 13:00 51.1 49.4 51.1 45.3 94 Calm 29.99 1015.4 0.02 0.14 0.29 77 0.0 0.002
26 12:00 50.3 48.6 94 Calm 30.02 1016.7 0.29 93 0.6 0.001
26 11:00 49.1 47.4 94 Calm 30.06 1017.9 0.02 0.29 88 0.5 0.000
26 10:00 47.2 45.6 94 NE 0 G 1 30.11 1019.7 0.05 0.12 0.27 19 0.0 0.000
26 09:00 46.7 45.1 94 Calm 30.13 1020.3 0.03 0.22 19 0.0 0.000
26 08:00 46.0 44.4 94 Calm 30.15 1021.1 0.04 0.19 5 0.0 0.000
26 07:00 45.3 43.7 45.3 35.0 94 ESE 0 G 1 30.17 1021.6 0.09 0.12 0.15 0.15 0 0.0 0.000
26 06:00 43.0 41.4 94 SE 1 G 6 30.18 1022.0 0.03 0.06 0 0.0 0.000
26 05:00 41.5 40.2 95 SE 4 G 8 30.19 1022.5 0.03 0 0.0 0.000
26 04:00 38.8 37.2 94 ESE 3 G 4 30.20 1022.8 0.01 0.03 0.03 0 0.0 0.000
26 03:00 37.0 35.4 94 NE 1 G 2 30.20 1022.6 0.02 0.02 0 0.0 0.000
26 02:00 35.9 34.3 94 N 3 G 7 30.20 1022.8 0.00 0 0.0 0.000
26 01:00 35.1 33.3 37.1 34.0 93 NW 1 G 5 30.21 1023.1 0.00 0 0.0 0.000
26 00:00 34.1 32.3 93 NNW 5 G 8 30.21 1022.9 0.10 0 0.0 0.016
25 23:00 34.5 32.7 93 NW 5 G 7 30.20 1022.7 0.10 0 0.0 0.016
25 22:00 35.1 33.3 93 NW 7 G 9 30.20 1022.6 0.10 0 0.0 0.016
25 21:00 35.3 33.5 93 NNW 2 G 4 30.21 1023.2 0.10 0 0.0 0.016
25 20:00 35.6 33.8 93 NW 9 G 12 30.22 1023.2 0.10 0 0.0 0.016
25 19:00 37.0 34.9 46.4 37.0 92 NW 8 G 14 30.23 1023.7 0.01 0.09 0.10 0 0.0 0.016
25 18:00 38.3 35.9 91 NW 2 G 10 30.24 1024.1 0.10 0 0.0 0.016
25 17:00 41.8 39.4 91 W 0 G 1 30.26 1024.8 0.01 0.10 0 0.0 0.016
25 16:00 43.0 40.3 90 W 0 G 1 30.26 1024.9 0.05 0.08 0.09 0 0.0 0.016
25 15:00 46.3 42.9 88 Calm 30.27 1025.2 0.02 0.04 9 0.0 0.016
25 14:00 45.0 41.1 86 Calm 30.29 1025.9 0.01 0.02 25 0.0 0.015
25 13:00 43.3 39.4 43.4 27.4 86 Calm 30.33 1027.1 0.01 0.01 0.01 0.01 40 0.0 0.014
25 12:00 42.7 37.6 82 Calm 30.35 1027.9 0.00 46 0.0 0.013
25 11:00 40.8 35.1 80 SSE 1 G 19 30.38 1028.9 0.00 49 0.0 0.011
25 10:00 38.8 32.5 78 SSE 15 G 21 30.44 1031.0 0.00 47 0.0 0.009
25 09:00 36.6 30.7 79 SE 14 G 19 30.46 1031.7 0.00 28 0.0 0.008
25 08:00 31.5 26.9 83 ENE 8 G 11 30.47 1032.0 0.00 19 0.0 0.007
25 07:00 27.5 21.5 27.5 22.9 78 N 4 G 9 30.51 1033.1 0.00 0 0.0 0.006
25 06:00 27.3 21.0 77 N 5 G 10 30.51 1033.3 0.00 0 0.0 0.005
25 05:00 25.8 19.0 75 N 5 G 7 30.51 1033.2 0.00 0 0.0 0.004
25 04:00 24.5 17.1 73 N 7 G 8 30.50 1032.9 0.00 0 0.0 0.003
25 03:00 23.2 15.2 71 N 4 G 9 30.50 1032.8 0.00 0 0.0 0.002
25 02:00 23.3 14.3 68 N 6 G 9 30.49 1032.7 0.00 0 0.0 0.001
25 01:00 23.0 14.0 29.4 23.0 68 NNW 4 G 10 30.50 1032.8 0.00 0 0.0 0.000
25 00:00 23.4 14.1 67 N 3 G 9 30.50 1032.7 0.00 0 0.0 0.059
24 23:00 24.4 14.3 65 N 4 G 10 30.47 1031.9 0.00 0 0.0 0.058
24 22:00 25.2 15.1 65 N 6 G 9 30.46 1031.6 0.00 0 0.0 0.057
24 21:00 26.3 15.0 62 N 5 G 9 30.46 1031.6 0.00 0 0.0 0.056
24 20:00 27.6 15.9 61 N 2 G 10 30.44 1030.7 0.00 0 0.0 0.055
24 19:00 29.4 17.2 35.0 29.4 60 NW 8 G 20 30.41 1029.7 0.00 0 0.0 0.053
24 18:00 30.1 17.5 59 NW 7 G 14 30.36 1028.2 0.00 0 0.0 0.051
24 17:00 30.9 16.2 54 NNW 9 G 21 30.33 1027.1 0.00 0 0.0 0.049
24 16:00 31.6 16.4 53 NW 10 G 20 30.29 1025.8 0.00 9 0.0 0.046
24 15:00 33.2 16.1 49 NW 15 G 24 30.24 1024.2 0.00 33 0.0 0.044
24 14:00 34.3 17.1 49 WNW 0 G 1 30.20 1022.9 0.00 274 0.5 0.039
24 13:00 34.7 17.5 37.5 33.8 49 WNW 0 G 1 30.19 1022.3 0.00 394 1.0 0.035
24 12:00 34.2 16.5 48 NW 0 G 1 30.16 1021.4 0.00 424 1.3 0.029
24 11:00 35.8 20.3 53 Calm 30.15 1020.9 0.00 496 1.3 0.022
24 10:00 37.2 26.1 64 W 0 G 1 30.11 1019.8 0.00 429 1.0 0.017
24 09:00 36.2 26.7 68 W 0 G 1 30.09 1019.1 0.00 35 0.0 0.016
24 08:00 34.8 26.4 71 W 2 G 18 30.07 1018.4 0.00 25 0.0 0.014

Data generated by WxSolution Version 1.9.1.8, Build 2020.02.16.